createdAt,value
2022-08-28T00:02:26.133Z,83.47
2022-08-28T00:04:55.470Z,81.67
2022-08-28T00:07:25.490Z,81.70
2022-08-28T00:09:54.550Z,81.76
2022-08-28T00:12:24.981Z,82.00
2022-08-28T00:14:54.737Z,82.16
2022-08-28T00:17:22.900Z,83.21
2022-08-28T00:19:51.237Z,82.95
2022-08-28T00:22:19.618Z,82.23
2022-08-28T00:24:48.204Z,81.80
2022-08-28T00:27:33.977Z,82.67
2022-08-28T00:30:03.842Z,82.63
2022-08-28T00:32:35.078Z,82.50
2022-08-28T00:35:06.748Z,83.52
2022-08-28T00:37:35.753Z,82.97
2022-08-28T00:40:05.595Z,82.80
2022-08-28T00:42:34.910Z,83.57
2022-08-28T00:45:07.393Z,82.87
2022-08-28T00:47:35.668Z,83.12
2022-08-28T00:50:05.417Z,82.42
2022-08-28T00:52:32.918Z,82.20
2022-08-28T00:55:05.460Z,82.34
2022-08-28T00:57:36.773Z,81.67
2022-08-28T01:00:14.035Z,82.20
2022-08-28T01:02:42.332Z,82.90
2022-08-28T01:05:11.022Z,83.22
2022-08-28T01:07:39.947Z,84.82
2022-08-28T01:10:11.216Z,84.58
2022-08-28T01:12:40.043Z,84.54
2022-08-28T01:15:13.965Z,84.17
2022-08-28T01:17:45.208Z,84.11
2022-08-28T01:20:17.445Z,83.80
2022-08-28T01:22:49.175Z,83.48
2022-08-28T01:25:21.929Z,83.13
2022-08-28T01:27:51.783Z,82.87
2022-08-28T01:30:23.533Z,82.66
2022-08-28T01:32:53.947Z,82.42
2022-08-28T01:35:25.978Z,83.21
2022-08-28T01:37:55.894Z,86.18
2022-08-28T01:40:28.624Z,86.06
2022-08-28T01:42:56.808Z,88.00
2022-08-28T01:45:26.333Z,87.26
2022-08-28T01:47:58.172Z,88.54
2022-08-28T01:50:26.883Z,88.13
2022-08-28T01:52:54.932Z,87.25
2022-08-28T01:55:23.938Z,88.80
2022-08-28T01:57:59.158Z,88.35
2022-08-28T02:00:28.887Z,88.52
2022-08-28T02:02:57.954Z,88.68
2022-08-28T02:05:29.941Z,88.96
2022-08-28T02:07:58.702Z,89.73
2022-08-28T02:10:28.696Z,90.92
2022-08-28T02:13:00.503Z,91.14
2022-08-28T02:15:30.503Z,91.29
2022-08-28T02:18:00.215Z,93.03
2022-08-28T02:20:29.895Z,93.42
2022-08-28T02:22:58.982Z,92.67
2022-08-28T02:25:28.907Z,91.89
2022-08-28T02:28:00.009Z,92.46
2022-08-28T02:30:31.403Z,91.32
2022-08-28T02:33:00.973Z,91.03
2022-08-28T02:35:31.393Z,90.64
2022-08-28T02:38:00.433Z,91.23
2022-08-28T02:40:29.794Z,90.22
2022-08-28T02:43:00.632Z,90.86
2022-08-28T02:45:28.790Z,89.77
2022-08-28T02:47:56.977Z,91.01
2022-08-28T02:50:25.919Z,90.61
2022-08-28T02:52:55.042Z,90.11
2022-08-28T02:55:24.932Z,88.78
2022-08-28T02:57:54.716Z,87.99
2022-08-28T03:00:26.505Z,88.07
2022-08-28T03:02:56.073Z,87.79
2022-08-28T03:05:26.430Z,88.30
2022-08-28T03:07:54.829Z,89.45
2022-08-28T03:10:24.055Z,88.76
2022-08-28T03:12:53.365Z,88.59
2022-08-28T03:15:22.705Z,87.83
2022-08-28T03:17:53.509Z,87.13
2022-08-28T03:20:23.080Z,88.73
2022-08-28T03:23:10.488Z,88.00
2022-08-28T03:25:38.774Z,87.17
2022-08-28T03:28:09.247Z,87.01
2022-08-28T03:30:41.043Z,86.50
2022-08-28T03:33:11.498Z,86.41
2022-08-28T03:35:39.590Z,87.04
2022-08-28T03:38:07.966Z,87.46
2022-08-28T03:40:40.779Z,87.28
2022-08-28T03:43:08.850Z,88.02
2022-08-28T03:45:37.887Z,88.72
2022-08-28T03:48:07.281Z,88.19
2022-08-28T03:50:37.283Z,88.94
2022-08-28T03:53:06.661Z,90.30
2022-08-28T03:55:37.178Z,90.64
2022-08-28T03:58:05.266Z,90.28
2022-08-28T04:00:34.772Z,89.72
2022-08-28T04:03:04.644Z,89.85
2022-08-28T04:05:35.064Z,91.94
2022-08-28T04:08:05.826Z,91.83
2022-08-28T04:10:34.802Z,92.43
2022-08-28T04:13:04.661Z,92.66
2022-08-28T04:15:32.990Z,92.61
2022-08-28T04:18:02.564Z,92.31
2022-08-28T04:20:30.918Z,91.83
2022-08-28T04:22:59.003Z,93.04
2022-08-28T04:25:31.612Z,92.76
2022-08-28T04:28:02.861Z,92.23
2022-08-28T04:30:32.199Z,90.71
2022-08-28T04:33:00.262Z,90.66
2022-08-28T04:35:29.522Z,91.52
2022-08-28T04:37:59.066Z,92.17
2022-08-28T04:40:28.644Z,92.11
2022-08-28T04:42:58.357Z,92.29
2022-08-28T04:45:27.683Z,91.70
2022-08-28T04:47:55.769Z,91.67
2022-08-28T04:50:27.151Z,92.50
2022-08-28T04:52:56.033Z,92.83
2022-08-28T04:55:41.417Z,92.42
2022-08-28T04:58:14.676Z,92.63
2022-08-28T05:00:44.796Z,91.67
2022-08-28T05:03:13.326Z,92.21
2022-08-28T05:05:43.238Z,91.81
2022-08-28T05:08:11.885Z,90.91
2022-08-28T05:10:41.704Z,88.99
2022-08-28T05:13:11.616Z,89.81
2022-08-28T05:15:44.588Z,88.43
2022-08-28T05:18:13.824Z,89.50
2022-08-28T05:20:45.293Z,89.01
2022-08-28T05:23:15.303Z,86.91
2022-08-28T05:25:47.522Z,85.83
2022-08-28T05:28:19.463Z,86.32
2022-08-28T05:30:50.238Z,87.15
2022-08-28T05:33:20.575Z,87.33
2022-08-28T05:35:50.090Z,88.00
2022-08-28T05:38:18.503Z,88.33
2022-08-28T05:40:49.982Z,89.36
2022-08-28T05:43:18.691Z,88.21
2022-08-28T05:46:00.747Z,87.74
2022-08-28T05:48:32.853Z,87.40
2022-08-28T05:51:08.147Z,87.90
2022-08-28T05:53:37.636Z,89.11
2022-08-28T05:56:09.358Z,88.01
2022-08-28T05:58:40.123Z,88.40
2022-08-28T06:01:12.780Z,89.30
2022-08-28T06:03:42.451Z,87.67
2022-08-28T06:06:18.172Z,88.71
2022-08-28T06:08:56.360Z,89.66
2022-08-28T06:11:30.898Z,88.66
2022-08-28T06:14:01.505Z,87.59
2022-08-28T06:16:32.423Z,87.35
2022-08-28T06:19:01.505Z,87.24
2022-08-28T06:21:29.884Z,86.33
2022-08-28T06:23:58.188Z,89.02
2022-08-28T06:26:27.907Z,89.56
2022-08-28T06:28:56.102Z,88.88
2022-08-28T06:31:26.435Z,88.61
2022-08-28T06:33:58.893Z,87.19
2022-08-28T06:36:29.088Z,88.25
2022-08-28T06:39:00.922Z,87.77
2022-08-28T06:41:31.792Z,89.17
2022-08-28T06:44:00.411Z,88.02
2022-08-28T06:46:33.365Z,88.04
2022-08-28T06:49:07.722Z,89.14
2022-08-28T06:51:36.684Z,88.70
2022-08-28T06:54:06.743Z,88.70
2022-08-28T06:56:34.998Z,87.24
2022-08-28T06:59:05.167Z,86.99
2022-08-28T07:01:35.463Z,86.56
2022-08-28T07:04:08.816Z,86.17
2022-08-28T07:06:38.953Z,85.75
2022-08-28T07:09:11.560Z,86.37
2022-08-28T07:11:40.050Z,84.81
2022-08-28T07:14:10.015Z,83.57
2022-08-28T07:16:39.624Z,83.79
2022-08-28T07:19:12.073Z,82.33
2022-08-28T07:21:44.777Z,82.98
2022-08-28T07:24:15.982Z,82.47
2022-08-28T07:26:45.311Z,83.71
2022-08-28T07:29:14.498Z,84.06
2022-08-28T07:31:46.553Z,84.01
2022-08-28T07:34:19.860Z,83.38
2022-08-28T07:36:48.290Z,83.43
2022-08-28T07:39:19.616Z,83.48
2022-08-28T07:41:48.841Z,83.42
2022-08-28T07:44:35.551Z,81.96
2022-08-28T07:47:06.564Z,83.40
2022-08-28T07:49:41.595Z,83.03
2022-08-28T07:52:12.673Z,82.62
2022-08-28T07:54:43.574Z,83.06
2022-08-28T07:57:12.503Z,83.35
2022-08-28T07:59:42.986Z,83.56
2022-08-28T08:02:15.410Z,84.26
2022-08-28T08:04:45.092Z,84.17
2022-08-28T08:07:14.553Z,85.75
2022-08-28T08:09:44.440Z,85.42
2022-08-28T08:12:13.331Z,84.83
2022-08-28T08:14:43.995Z,85.75
2022-08-28T08:17:13.701Z,88.52
2022-08-28T08:19:42.318Z,91.44
2022-08-28T08:22:16.582Z,98.40
2022-08-28T08:24:47.583Z,99.94
2022-08-28T08:27:17.231Z,100.00
2022-08-28T08:29:48.651Z,100.00
2022-08-28T08:32:20.242Z,100.00
2022-08-28T08:34:50.268Z,100.00
2022-08-28T08:37:20.325Z,100.00
2022-08-28T08:39:50.752Z,100.00
2022-08-28T08:42:26.247Z,100.00
2022-08-28T08:44:57.067Z,100.00
2022-08-28T08:47:32.651Z,100.00
2022-08-28T08:50:11.476Z,99.51
2022-08-28T08:52:48.879Z,98.68
2022-08-28T08:55:29.325Z,98.67
2022-08-28T08:58:08.993Z,97.42
2022-08-28T09:00:41.260Z,98.47
2022-08-28T09:03:15.481Z,96.78
2022-08-28T09:05:50.313Z,96.86
2022-08-28T09:08:30.475Z,98.22
2022-08-28T09:11:12.840Z,98.64
2022-08-28T09:13:51.894Z,96.98
2022-08-28T09:16:37.679Z,97.36
2022-08-28T09:19:07.383Z,96.44
2022-08-28T09:21:40.627Z,96.33
2022-08-28T09:24:19.531Z,94.62
2022-08-28T09:26:55.426Z,92.72
2022-08-28T09:29:31.583Z,92.50
2022-08-28T09:32:00.501Z,93.49
2022-08-28T09:34:38.564Z,91.99
2022-08-28T09:37:09.758Z,92.13
2022-08-28T09:39:49.006Z,93.00
2022-08-28T09:42:40.779Z,91.70
2022-08-28T09:45:18.639Z,88.91
2022-08-28T09:47:49.969Z,90.14
2022-08-28T09:50:38.160Z,88.43
2022-08-28T09:53:22.363Z,86.72
2022-08-28T09:55:58.483Z,88.06
2022-08-28T09:58:36.244Z,87.91
2022-08-28T10:01:18.644Z,88.29
2022-08-28T10:03:55.489Z,87.06
2022-08-28T10:06:27.190Z,85.85
2022-08-28T10:09:07.756Z,87.42
2022-08-28T10:11:48.314Z,86.83
2022-08-28T10:14:33.278Z,85.62
2022-08-28T10:17:12.149Z,83.38
2022-08-28T10:19:47.399Z,83.83
2022-08-28T10:22:26.835Z,82.88
2022-08-28T10:25:05.385Z,82.01
2022-08-28T10:27:48.580Z,80.89
2022-08-28T10:30:22.028Z,79.42
2022-08-28T10:33:00.403Z,79.83
2022-08-28T10:35:38.477Z,78.64
2022-08-28T10:38:10.507Z,74.74
2022-08-28T10:40:46.449Z,72.85
2022-08-28T10:43:20.419Z,76.03
2022-08-28T10:45:51.700Z,75.45
2022-08-28T10:48:28.635Z,73.82
2022-08-28T10:51:00.234Z,72.40
2022-08-28T10:53:39.313Z,73.14
2022-08-28T10:56:11.513Z,73.30
2022-08-28T10:58:43.342Z,72.11
2022-08-28T11:01:16.288Z,72.98
2022-08-28T11:03:50.031Z,73.74
2022-08-28T11:06:32.642Z,73.40
2022-08-28T11:09:24.817Z,72.02
2022-08-28T11:12:02.031Z,73.51
2022-08-28T11:14:35.443Z,72.90
2022-08-28T11:17:14.324Z,72.41
2022-08-28T11:20:33.465Z,71.06
2022-08-28T11:23:10.551Z,71.63
2022-08-28T11:25:48.971Z,70.33
2022-08-28T11:28:22.511Z,70.16
2022-08-28T11:31:29.033Z,67.97
2022-08-28T11:34:00.219Z,67.25
2022-08-28T11:37:03.823Z,67.99
2022-08-28T11:39:32.583Z,65.35
2022-08-28T11:42:32.411Z,64.72
2022-08-28T11:45:04.194Z,64.98
2022-08-28T11:47:56.954Z,64.99
2022-08-28T11:50:33.493Z,60.99
2022-08-28T11:53:36.081Z,63.17
2022-08-28T11:56:30.486Z,65.01
2022-08-28T11:59:09.877Z,64.42
2022-08-28T12:01:41.339Z,63.15
2022-08-28T12:04:12.486Z,61.45
2022-08-28T12:06:50.591Z,62.46
2022-08-28T12:09:43.968Z,62.59
2022-08-28T12:12:16.168Z,63.43
2022-08-28T12:15:09.332Z,63.78
2022-08-28T12:17:50.159Z,62.02
2022-08-28T12:21:07.209Z,60.96
2022-08-28T12:23:42.944Z,62.22
2022-08-28T12:26:21.802Z,61.24
2022-08-28T12:28:52.097Z,58.98
2022-08-28T12:31:45.967Z,59.90
2022-08-28T12:34:21.072Z,60.82
2022-08-28T12:36:57.617Z,58.82
2022-08-28T12:39:28.912Z,58.78
2022-08-28T12:41:58.921Z,58.56
2022-08-28T12:44:31.211Z,56.46
2022-08-28T12:47:00.204Z,57.44
2022-08-28T12:49:32.452Z,56.45
2022-08-28T12:52:17.438Z,56.29
2022-08-28T12:54:51.568Z,56.94
2022-08-28T12:57:25.123Z,57.41
2022-08-28T12:59:59.436Z,57.25
2022-08-28T13:02:31.255Z,59.21
2022-08-28T13:05:03.817Z,59.42
2022-08-28T13:07:34.034Z,58.21
2022-08-28T13:10:07.954Z,56.47
2022-08-28T13:12:55.799Z,57.35
2022-08-28T13:15:48.903Z,56.25
2022-08-28T13:18:37.247Z,55.51
2022-08-28T13:21:32.785Z,57.42
2022-08-28T13:24:30.011Z,58.16
2022-08-28T13:27:08.157Z,59.31
2022-08-28T13:29:37.668Z,59.77
2022-08-28T13:32:08.804Z,60.43
2022-08-28T13:34:39.093Z,60.00
2022-08-28T13:37:45.237Z,59.27
2022-08-28T13:40:38.210Z,59.26
2022-08-28T13:43:07.549Z,58.74
2022-08-28T13:45:42.931Z,57.96
2022-08-28T13:48:15.271Z,56.96
2022-08-28T13:50:46.843Z,54.45
2022-08-28T13:53:21.910Z,53.52
2022-08-28T13:58:35.944Z,57.37
2022-08-28T14:01:08.736Z,58.59
2022-08-28T14:03:36.054Z,59.40
2022-08-28T14:06:12.768Z,60.50
2022-08-28T14:08:45.513Z,61.68
2022-08-28T14:11:16.283Z,62.10
2022-08-28T14:13:55.855Z,61.71
2022-08-28T14:16:37.799Z,62.21
2022-08-28T14:19:13.626Z,62.28
2022-08-28T14:21:42.411Z,63.59
2022-08-28T14:24:15.241Z,63.52
2022-08-28T14:26:45.653Z,63.43
2022-08-28T14:29:19.329Z,64.00
2022-08-28T14:31:51.058Z,62.59
2022-08-28T14:34:22.491Z,61.10
2022-08-28T14:36:55.656Z,62.51
2022-08-28T14:39:27.720Z,62.70
2022-08-28T14:41:57.184Z,63.23
2022-08-28T14:44:26.658Z,63.33
2022-08-28T14:46:56.093Z,63.67
2022-08-28T14:49:28.906Z,64.03
2022-08-28T14:51:58.561Z,63.09
2022-08-28T14:54:34.520Z,61.60
2022-08-28T14:57:03.642Z,62.72
2022-08-28T14:59:37.662Z,62.34
2022-08-28T15:02:06.082Z,62.08
2022-08-28T15:04:37.868Z,62.73
2022-08-28T15:07:11.001Z,63.38
2022-08-28T15:09:51.299Z,62.87
2022-08-28T15:12:22.223Z,63.29
2022-08-28T15:14:57.490Z,64.34
2022-08-28T15:17:34.126Z,64.00
2022-08-28T15:20:06.012Z,64.06
2022-08-28T15:22:34.173Z,64.18
2022-08-28T15:25:09.869Z,63.29
2022-08-28T15:27:40.561Z,63.71
2022-08-28T15:30:13.154Z,62.40
2022-08-28T15:32:49.785Z,63.13
2022-08-28T15:35:21.458Z,62.85
2022-08-28T15:37:52.086Z,64.23
2022-08-28T15:40:41.267Z,65.06
2022-08-28T15:43:09.468Z,65.41
2022-08-28T15:45:41.083Z,67.16
2022-08-28T15:48:11.315Z,67.20
2022-08-28T15:50:52.642Z,66.48
2022-08-28T15:53:22.259Z,65.55
2022-08-28T15:55:54.249Z,66.61
2022-08-28T15:58:22.500Z,65.88
2022-08-28T16:00:53.941Z,65.63
2022-08-28T16:03:22.772Z,65.48
2022-08-28T16:05:50.978Z,65.76
2022-08-28T16:08:21.052Z,63.53
2022-08-28T16:10:52.087Z,62.08
2022-08-28T16:13:21.909Z,63.29
2022-08-28T16:15:55.550Z,64.08
2022-08-28T16:18:26.134Z,64.81
2022-08-28T16:21:04.580Z,66.24
2022-08-28T16:23:35.834Z,68.45
2022-08-28T16:26:09.888Z,68.73
2022-08-28T16:28:40.342Z,71.32
2022-08-28T16:31:19.073Z,72.14
2022-08-28T16:33:50.357Z,70.35
2022-08-28T16:36:23.833Z,70.53
2022-08-28T16:39:03.436Z,71.20
2022-08-28T16:41:34.598Z,74.17
2022-08-28T16:44:04.439Z,76.30
2022-08-28T16:46:35.291Z,78.42
2022-08-28T16:49:05.472Z,79.24
2022-08-28T16:51:34.274Z,80.65
2022-08-28T16:54:05.219Z,82.34
2022-08-28T16:56:36.179Z,83.36
2022-08-28T16:59:10.501Z,83.94
2022-08-28T17:01:42.851Z,84.52
2022-08-28T17:04:12.427Z,85.48
2022-08-28T17:06:47.734Z,85.69
2022-08-28T17:09:16.093Z,85.80
2022-08-28T17:11:45.533Z,85.98
2022-08-28T17:14:23.879Z,85.35
2022-08-28T17:16:52.886Z,85.80
2022-08-28T17:19:24.834Z,85.91
2022-08-28T17:22:11.146Z,85.82
2022-08-28T17:24:40.433Z,87.24
2022-08-28T17:27:25.568Z,86.65
2022-08-28T17:29:54.169Z,87.03
2022-08-28T17:32:22.413Z,87.46
2022-08-28T17:34:53.301Z,86.32
2022-08-28T17:37:24.433Z,86.12
2022-08-28T17:39:54.819Z,87.15
2022-08-28T17:42:33.320Z,85.75
2022-08-28T17:45:02.285Z,86.45
2022-08-28T17:47:33.562Z,86.34
2022-08-28T17:50:04.015Z,87.36
2022-08-28T17:52:33.630Z,87.19
2022-08-28T17:55:03.866Z,88.28
2022-08-28T17:57:34.408Z,87.02
2022-08-28T18:00:05.194Z,87.49
2022-08-28T18:02:57.811Z,86.33
2022-08-28T18:05:27.491Z,86.27
2022-08-28T18:07:56.133Z,86.04
2022-08-28T18:10:25.606Z,85.56
2022-08-28T18:12:55.868Z,85.34
2022-08-28T18:15:25.526Z,85.64
2022-08-28T18:17:58.382Z,84.50
2022-08-28T18:20:30.193Z,85.31
2022-08-28T18:23:07.814Z,83.22
2022-08-28T18:25:50.591Z,83.37
2022-08-28T18:28:27.497Z,82.78
2022-08-28T18:30:57.221Z,84.51
2022-08-28T18:33:30.954Z,83.13
2022-08-28T18:36:00.432Z,84.00
2022-08-28T18:38:38.823Z,84.17
2022-08-28T18:41:17.878Z,84.70
2022-08-28T18:43:49.946Z,85.04
2022-08-28T18:46:19.912Z,86.47
2022-08-28T18:48:52.597Z,86.89
2022-08-28T18:51:22.594Z,87.06
2022-08-28T18:53:51.607Z,86.28
2022-08-28T18:56:20.410Z,88.29
2022-08-28T18:58:52.430Z,88.43
2022-08-28T19:01:24.614Z,87.48
2022-08-28T19:04:00.419Z,87.73
2022-08-28T19:06:33.762Z,87.58
2022-08-28T19:09:06.142Z,87.85
2022-08-28T19:11:43.387Z,87.28
2022-08-28T19:14:16.041Z,87.21
2022-08-28T19:16:44.581Z,87.88
2022-08-28T19:19:24.624Z,88.10
2022-08-28T19:21:56.007Z,87.04
2022-08-28T19:24:25.767Z,87.33
2022-08-28T19:27:04.976Z,87.44
2022-08-28T19:29:39.109Z,87.02
2022-08-28T19:32:09.917Z,87.46
2022-08-28T19:34:38.545Z,88.43
2022-08-28T19:37:16.392Z,88.18
2022-08-28T19:39:56.316Z,88.15
2022-08-28T19:42:27.618Z,87.70
2022-08-28T19:44:59.937Z,87.96
2022-08-28T19:47:35.508Z,88.85
2022-08-28T19:50:09.788Z,86.99
2022-08-28T19:52:49.769Z,87.61
2022-08-28T19:55:22.548Z,87.37
2022-08-28T19:57:54.079Z,87.70
2022-08-28T20:00:29.969Z,88.32
2022-08-28T20:02:59.905Z,86.55
2022-08-28T20:05:32.204Z,86.28
2022-08-28T20:08:03.015Z,85.98
2022-08-28T20:10:31.920Z,85.74
2022-08-28T20:13:07.170Z,86.28
2022-08-28T20:15:39.686Z,85.88
2022-08-28T20:18:10.249Z,85.31
2022-08-28T20:20:40.212Z,85.31
2022-08-28T20:23:09.972Z,85.21
2022-08-28T20:25:40.583Z,85.46
2022-08-28T20:28:19.004Z,86.31
2022-08-28T20:30:48.788Z,85.88
2022-08-28T20:33:17.268Z,86.85
2022-08-28T20:35:46.327Z,86.38
2022-08-28T20:38:16.686Z,85.13
2022-08-28T20:40:45.674Z,84.52
2022-08-28T20:43:26.454Z,84.39
2022-08-28T20:46:02.974Z,85.15
2022-08-28T20:48:40.909Z,84.84
2022-08-28T20:51:11.535Z,83.32
2022-08-28T20:53:51.645Z,82.54
2022-08-28T20:56:23.130Z,83.85
2022-08-28T20:58:51.846Z,82.13
2022-08-28T21:01:26.112Z,82.04
2022-08-28T21:03:58.011Z,82.86
2022-08-28T21:06:27.389Z,82.36
2022-08-28T21:09:04.001Z,84.05
2022-08-28T21:11:34.930Z,84.28
2022-08-28T21:14:03.528Z,82.21
2022-08-28T21:16:35.349Z,82.16
2022-08-28T21:19:15.657Z,82.05
2022-08-28T21:21:47.557Z,81.62
2022-08-28T21:24:18.588Z,79.96
2022-08-28T21:26:50.582Z,80.52
2022-08-28T21:29:23.000Z,80.09
2022-08-28T21:31:53.675Z,80.21
2022-08-28T21:34:22.724Z,80.14
2022-08-28T21:36:54.477Z,80.25
2022-08-28T21:39:30.943Z,80.19
2022-08-28T21:42:04.477Z,80.66
2022-08-28T21:44:33.883Z,80.79
2022-08-28T21:47:06.183Z,81.67
2022-08-28T21:49:35.510Z,81.91
2022-08-28T21:52:06.564Z,81.73
2022-08-28T21:54:37.074Z,82.36
2022-08-28T21:57:05.670Z,82.86
2022-08-28T21:59:38.590Z,82.46
2022-08-28T22:02:08.227Z,82.89
2022-08-28T22:04:38.737Z,82.55
2022-08-28T22:07:07.067Z,82.23
2022-08-28T22:09:35.175Z,82.98
2022-08-28T22:12:06.444Z,82.60
2022-08-28T22:14:35.594Z,81.17
2022-08-28T22:17:10.179Z,82.04
2022-08-28T22:19:43.363Z,82.96
2022-08-28T22:22:32.796Z,82.05
2022-08-28T22:25:00.988Z,81.44
2022-08-28T22:27:31.966Z,81.53
2022-08-28T22:30:00.925Z,80.55
2022-08-28T22:32:31.327Z,81.70
2022-08-28T22:35:01.883Z,81.69
2022-08-28T22:37:30.155Z,80.63
2022-08-28T22:39:59.330Z,80.37
2022-08-28T22:42:28.788Z,80.32
2022-08-28T22:44:57.453Z,79.56
2022-08-28T22:47:25.704Z,80.70
2022-08-28T22:49:56.240Z,80.45
2022-08-28T22:52:30.044Z,79.14
2022-08-28T22:54:59.171Z,79.71
2022-08-28T22:57:28.647Z,79.34
2022-08-28T23:00:01.492Z,78.89
2022-08-28T23:02:31.576Z,80.07
2022-08-28T23:05:00.511Z,79.08
2022-08-28T23:07:30.170Z,80.87
2022-08-28T23:09:58.444Z,79.80
2022-08-28T23:12:28.144Z,78.82
2022-08-28T23:14:56.352Z,79.91
2022-08-28T23:17:33.708Z,79.58
2022-08-28T23:20:02.486Z,79.68
2022-08-28T23:22:41.788Z,79.24
2022-08-28T23:25:15.851Z,80.89
2022-08-28T23:27:44.078Z,81.00
2022-08-28T23:30:13.776Z,79.40
2022-08-28T23:32:43.541Z,81.21
2022-08-28T23:35:14.251Z,80.95
2022-08-28T23:37:48.479Z,80.02
2022-08-28T23:40:21.159Z,80.09
2022-08-28T23:42:50.174Z,79.73
2022-08-28T23:45:22.544Z,79.92
2022-08-28T23:47:51.312Z,79.64
2022-08-28T23:50:22.031Z,79.32
2022-08-28T23:52:53.161Z,79.37
2022-08-28T23:55:21.866Z,79.89
2022-08-28T23:57:52.398Z,79.16
